Terminal Aerodrome Forecast
Issued by NWS Goodland, KS

Home | Current Version | Previous Version | Text Only | Print | Product List | Glossary On
Versions: 1 2 3 4 5 6 7 8 9 10 11 12 13 14 15 16 17 18 19 20
000
FTUS43 KGLD 021335 AAB
TAFGLD
TAF AMD
KGLD 021335Z 0214/0312 16006KT P6SM SCT006 BKN015
      TEMPO 0214/0216 5SM BR BKN006
     FM021600 17015G25KT P6SM BKN025
     FM021800 18023G35KT P6SM BKN020
     FM030200 19020G30KT P6SM BKN035=

USA.gov is the U.S. government's official web portal to all federal, state and local government web resources and services.